createdAt,value
2022-11-27T00:01:20.863Z,68.33
2022-11-27T00:03:48.126Z,68.09
2022-11-27T00:06:20.977Z,68.11
2022-11-27T00:08:48.287Z,68.31
2022-11-27T00:11:17.925Z,68.15
2022-11-27T00:13:45.211Z,68.30
2022-11-27T00:16:12.453Z,68.32
2022-11-27T00:18:39.239Z,68.09
2022-11-27T00:21:08.891Z,68.23
2022-11-27T00:23:35.403Z,68.21
2022-11-27T00:26:02.946Z,68.22
2022-11-27T00:28:29.897Z,68.10
2022-11-27T00:31:01.411Z,68.37
2022-11-27T00:33:28.040Z,68.24
2022-11-27T00:35:54.517Z,68.03
2022-11-27T00:38:20.996Z,68.50
2022-11-27T00:40:47.788Z,68.27
2022-11-27T00:43:14.167Z,68.11
2022-11-27T00:45:40.532Z,68.41
2022-11-27T00:48:06.932Z,68.45
2022-11-27T00:50:33.337Z,68.49
2022-11-27T00:52:59.821Z,68.37
2022-11-27T00:55:26.721Z,68.17
2022-11-27T00:57:53.117Z,68.25
2022-11-27T01:00:19.837Z,68.22
2022-11-27T01:02:46.345Z,68.28
2022-11-27T01:05:12.975Z,68.23
2022-11-27T01:07:39.441Z,68.73
2022-11-27T01:10:06.745Z,68.39
2022-11-27T01:12:33.112Z,68.40
2022-11-27T01:14:59.579Z,68.33
2022-11-27T01:17:25.951Z,68.52
2022-11-27T01:19:52.343Z,68.70
2022-11-27T01:22:18.718Z,68.54
2022-11-27T01:24:45.155Z,68.49
2022-11-27T01:27:11.555Z,68.57
2022-11-27T01:29:37.920Z,68.54
2022-11-27T01:32:04.523Z,68.43
2022-11-27T01:34:30.919Z,68.39
2022-11-27T01:36:57.304Z,68.37
2022-11-27T01:39:24.703Z,68.47
2022-11-27T01:41:51.288Z,68.45
2022-11-27T01:44:23.488Z,68.71
2022-11-27T01:47:22.024Z,68.88
2022-11-27T01:49:51.950Z,68.15
2022-11-27T01:52:27.635Z,68.58
2022-11-27T01:55:08.968Z,68.85
2022-11-27T01:57:44.571Z,68.61
2022-11-27T02:00:14.006Z,68.24
2022-11-27T02:02:41.865Z,68.56
2022-11-27T02:05:09.460Z,68.68
2022-11-27T02:07:36.360Z,68.44
2022-11-27T02:10:04.673Z,68.37
2022-11-27T02:12:52.086Z,68.15
2022-11-27T02:15:37.888Z,68.58
2022-11-27T02:18:09.983Z,68.17
2022-11-27T02:21:01.058Z,68.23
2022-11-27T02:23:47.618Z,68.44
2022-11-27T02:26:51.838Z,68.46
2022-11-27T02:29:23.282Z,67.94
2022-11-27T02:32:08.298Z,68.03
2022-11-27T02:35:02.598Z,68.02
2022-11-27T02:37:31.999Z,67.95
2022-11-27T02:40:23.686Z,68.27
2022-11-27T02:42:59.448Z,67.91
2022-11-27T02:45:34.641Z,68.00
2022-11-27T02:48:02.155Z,67.94
2022-11-27T02:50:32.153Z,68.12
2022-11-27T02:53:03.972Z,68.03
2022-11-27T02:55:33.466Z,68.23
2022-11-27T02:58:02.052Z,68.16
2022-11-27T03:00:30.168Z,67.86
2022-11-27T03:03:01.927Z,68.07
2022-11-27T03:05:32.616Z,67.97
2022-11-27T03:08:13.425Z,67.76
2022-11-27T03:11:15.912Z,68.06
2022-11-27T03:13:46.608Z,67.95
2022-11-27T03:16:24.873Z,67.97
2022-11-27T03:19:03.628Z,67.85
2022-11-27T03:21:35.912Z,67.98
2022-11-27T03:24:02.684Z,67.64
2022-11-27T03:26:29.149Z,67.85
2022-11-27T03:28:56.970Z,67.91
2022-11-27T03:31:24.077Z,67.54
2022-11-27T03:33:51.151Z,67.81
2022-11-27T03:36:21.063Z,67.46
2022-11-27T03:38:49.778Z,67.49
2022-11-27T03:41:21.296Z,67.32
2022-11-27T03:44:23.681Z,66.98
2022-11-27T03:47:27.547Z,67.40
2022-11-27T03:50:05.428Z,67.10
2022-11-27T03:53:13.821Z,67.09
2022-11-27T03:55:49.514Z,67.40
2022-11-27T03:58:34.772Z,67.04
2022-11-27T04:01:04.458Z,67.27
2022-11-27T04:03:31.568Z,67.25
2022-11-27T04:05:58.221Z,67.26
2022-11-27T04:08:25.097Z,67.09
2022-11-27T04:10:51.477Z,67.29
2022-11-27T04:13:17.861Z,67.16
2022-11-27T04:15:44.286Z,67.25
2022-11-27T04:18:10.753Z,67.27
2022-11-27T04:20:37.121Z,67.08
2022-11-27T04:23:03.618Z,66.78
2022-11-27T04:25:29.995Z,67.18
2022-11-27T04:27:56.728Z,67.21
2022-11-27T04:30:23.661Z,67.28
2022-11-27T04:32:50.035Z,66.98
2022-11-27T04:35:16.422Z,67.04
2022-11-27T04:37:42.836Z,67.18
2022-11-27T04:40:09.720Z,66.73
2022-11-27T04:42:36.066Z,67.05
2022-11-27T04:45:02.465Z,66.82
2022-11-27T04:47:28.858Z,66.82
2022-11-27T04:49:55.269Z,66.76
2022-11-27T04:52:21.648Z,66.91
2022-11-27T04:54:48.019Z,67.17
2022-11-27T04:57:14.452Z,67.24
2022-11-27T04:59:40.972Z,67.09
2022-11-27T05:02:07.435Z,67.22
2022-11-27T05:04:34.135Z,67.19
2022-11-27T05:07:00.635Z,67.34
2022-11-27T05:09:27.107Z,67.07
2022-11-27T05:11:53.629Z,67.40
2022-11-27T05:14:21.876Z,67.02
2022-11-27T05:16:54.461Z,66.93
2022-11-27T05:19:23.130Z,67.05
2022-11-27T05:21:50.580Z,67.10
2022-11-27T05:24:18.820Z,66.79
2022-11-27T05:26:45.372Z,67.25
2022-11-27T05:29:12.865Z,67.03
2022-11-27T05:31:40.014Z,66.70
2022-11-27T05:34:07.697Z,67.04
2022-11-27T05:36:34.988Z,66.65
2022-11-27T05:39:03.113Z,66.67
2022-11-27T05:41:30.069Z,66.73
2022-11-27T05:43:56.502Z,66.29
2022-11-27T05:46:23.370Z,66.14
2022-11-27T05:48:50.374Z,66.09
2022-11-27T05:51:17.945Z,66.03
2022-11-27T05:53:44.958Z,66.12
2022-11-27T05:56:14.257Z,65.70
2022-11-27T05:58:42.154Z,65.78
2022-11-27T06:01:10.449Z,65.93
2022-11-27T06:03:38.998Z,65.88
2022-11-27T06:06:10.473Z,65.67
2022-11-27T06:08:38.207Z,65.70
2022-11-27T06:11:21.270Z,65.52
2022-11-27T06:13:49.234Z,65.83
2022-11-27T06:16:18.648Z,65.56
2022-11-27T06:18:45.595Z,66.06
2022-11-27T06:21:14.290Z,65.44
2022-11-27T06:23:42.876Z,65.67
2022-11-27T06:26:20.943Z,64.93
2022-11-27T06:28:48.399Z,65.44
2022-11-27T06:31:18.797Z,65.02
2022-11-27T06:33:46.944Z,65.52
2022-11-27T06:36:13.507Z,65.48
2022-11-27T06:38:40.302Z,65.52
2022-11-27T06:41:09.882Z,65.10
2022-11-27T06:43:36.820Z,65.34
2022-11-27T06:46:04.618Z,65.56
2022-11-27T06:48:31.851Z,64.83
2022-11-27T06:51:03.271Z,64.80
2022-11-27T06:53:30.932Z,65.17
2022-11-27T06:55:57.677Z,64.99
2022-11-27T06:58:29.327Z,65.25
2022-11-27T07:01:03.101Z,64.88
2022-11-27T07:03:30.105Z,65.24
2022-11-27T07:06:00.311Z,64.63
2022-11-27T07:08:27.258Z,64.94
2022-11-27T07:10:54.228Z,64.89
2022-11-27T07:13:20.722Z,64.80
2022-11-27T07:15:47.289Z,64.76
2022-11-27T07:18:13.829Z,65.13
2022-11-27T07:20:40.364Z,65.04
2022-11-27T07:23:06.968Z,65.06
2022-11-27T07:25:33.501Z,65.05
2022-11-27T07:27:59.963Z,64.70
2022-11-27T07:30:26.516Z,64.75
2022-11-27T07:32:52.926Z,64.73
2022-11-27T07:35:19.518Z,64.54
2022-11-27T07:37:46.081Z,64.88
2022-11-27T07:40:14.861Z,64.71
2022-11-27T07:42:41.738Z,64.72
2022-11-27T07:45:09.462Z,64.37
2022-11-27T07:47:36.141Z,64.81
2022-11-27T07:50:02.707Z,64.94
2022-11-27T07:52:29.263Z,64.68
2022-11-27T07:54:55.794Z,64.39
2022-11-27T07:57:22.327Z,64.22
2022-11-27T07:59:48.927Z,64.15
2022-11-27T08:02:15.827Z,64.63
2022-11-27T08:04:42.582Z,63.95
2022-11-27T08:07:09.419Z,64.20
2022-11-27T08:09:35.927Z,64.04
2022-11-27T08:12:02.426Z,63.88
2022-11-27T08:14:29.020Z,63.97
2022-11-27T08:16:55.841Z,63.79
2022-11-27T08:19:22.488Z,63.90
2022-11-27T08:21:49.007Z,64.09
2022-11-27T08:24:15.705Z,63.66
2022-11-27T08:26:42.425Z,63.46
2022-11-27T08:29:12.246Z,63.08
2022-11-27T08:31:39.056Z,63.48
2022-11-27T08:34:05.977Z,63.16
2022-11-27T08:36:32.532Z,63.38
2022-11-27T08:38:59.189Z,63.44
2022-11-27T08:41:26.801Z,63.07
2022-11-27T08:43:53.301Z,63.09
2022-11-27T08:46:19.914Z,62.85
2022-11-27T08:48:46.473Z,62.89
2022-11-27T08:51:15.301Z,62.97
2022-11-27T08:53:44.409Z,63.23
2022-11-27T08:56:19.098Z,61.98
2022-11-27T08:58:45.884Z,63.02
2022-11-27T09:01:19.301Z,62.62
2022-11-27T09:03:46.794Z,62.70
2022-11-27T09:06:16.841Z,62.69
2022-11-27T09:08:43.955Z,62.24
2022-11-27T09:11:12.133Z,62.28
2022-11-27T09:13:40.244Z,62.26
2022-11-27T09:16:10.176Z,61.95
2022-11-27T09:18:37.151Z,62.39
2022-11-27T09:21:06.840Z,62.04
2022-11-27T09:23:33.870Z,61.86
2022-11-27T09:26:02.361Z,61.54
2022-11-27T09:28:31.535Z,61.88
2022-11-27T09:31:00.598Z,61.73
2022-11-27T09:33:28.926Z,61.84
2022-11-27T09:35:55.711Z,61.72
2022-11-27T09:38:23.566Z,61.92
2022-11-27T09:40:52.315Z,61.75
2022-11-27T09:43:28.455Z,61.12
2022-11-27T09:46:01.413Z,61.24
2022-11-27T09:48:33.766Z,59.66
2022-11-27T09:51:05.599Z,60.77
2022-11-27T09:53:52.568Z,60.75
2022-11-27T09:56:20.324Z,61.20
2022-11-27T09:59:00.579Z,59.85
2022-11-27T10:01:36.485Z,61.32
2022-11-27T10:04:10.891Z,61.19
2022-11-27T10:07:07.460Z,60.44
2022-11-27T10:09:40.784Z,61.03
2022-11-27T10:12:38.093Z,60.98
2022-11-27T10:15:25.386Z,60.14
2022-11-27T10:18:17.728Z,60.74
2022-11-27T10:20:49.456Z,60.94
2022-11-27T10:23:41.773Z,60.63
2022-11-27T10:26:19.065Z,60.93
2022-11-27T10:29:12.139Z,60.79
2022-11-27T10:32:01.229Z,60.76
2022-11-27T10:34:43.287Z,60.58
2022-11-27T10:37:13.018Z,61.12
2022-11-27T10:39:45.415Z,61.04
2022-11-27T10:42:22.678Z,61.34
2022-11-27T10:45:03.843Z,60.72
2022-11-27T10:47:33.849Z,61.27
2022-11-27T10:50:01.155Z,61.42
2022-11-27T10:52:27.703Z,61.40
2022-11-27T10:55:03.041Z,60.49
2022-11-27T10:57:56.135Z,60.87
2022-11-27T11:00:25.049Z,61.08
2022-11-27T11:03:17.118Z,59.98
2022-11-27T11:08:42.731Z,60.99
2022-11-27T11:11:09.804Z,61.04
2022-11-27T11:13:45.973Z,60.43
2022-11-27T11:16:14.906Z,60.80
2022-11-27T11:18:43.179Z,60.67
2022-11-27T11:21:17.226Z,60.07
2022-11-27T11:23:46.734Z,60.98
2022-11-27T11:26:19.133Z,60.91
2022-11-27T11:28:52.103Z,60.52
2022-11-27T11:31:21.924Z,60.63
2022-11-27T11:33:57.362Z,60.35
2022-11-27T11:36:23.853Z,60.97
2022-11-27T11:38:51.868Z,60.73
2022-11-27T11:41:18.878Z,60.74
2022-11-27T11:44:00.952Z,60.07
2022-11-27T11:46:32.641Z,60.41
2022-11-27T11:49:07.389Z,59.82
2022-11-27T11:51:52.441Z,59.80
2022-11-27T11:54:48.947Z,59.92
2022-11-27T11:57:34.466Z,59.26
2022-11-27T12:00:14.225Z,59.88
2022-11-27T12:03:04.938Z,59.83
2022-11-27T12:05:49.966Z,60.41
2022-11-27T12:08:54.010Z,60.06
2022-11-27T12:11:53.550Z,60.00
2022-11-27T12:14:28.586Z,60.63
2022-11-27T12:17:27.788Z,59.77
2022-11-27T12:20:09.367Z,60.18
2022-11-27T12:23:03.344Z,60.09
2022-11-27T12:25:55.968Z,60.27
2022-11-27T12:28:52.123Z,60.13
2022-11-27T12:31:43.216Z,59.56
2022-11-27T12:34:27.540Z,60.19
2022-11-27T12:37:02.973Z,60.14
2022-11-27T12:40:04.513Z,59.95
2022-11-27T12:43:07.752Z,59.45
2022-11-27T12:45:43.668Z,59.57
2022-11-27T12:48:19.785Z,59.55
2022-11-27T12:51:01.157Z,59.43
2022-11-27T12:53:45.373Z,59.45
2022-11-27T12:56:30.113Z,59.12
2022-11-27T12:59:08.251Z,59.13
2022-11-27T13:01:51.620Z,58.75
2022-11-27T13:04:22.129Z,59.61
2022-11-27T13:06:58.626Z,58.70
2022-11-27T13:09:45.614Z,59.09
2022-11-27T13:12:22.307Z,58.57
2022-11-27T13:15:00.338Z,58.59
2022-11-27T13:17:34.074Z,58.79
2022-11-27T13:20:02.420Z,59.21
2022-11-27T13:22:34.552Z,59.01
2022-11-27T13:25:02.159Z,59.23
2022-11-27T13:27:31.498Z,58.80
2022-11-27T13:30:05.401Z,58.48
2022-11-27T13:32:38.090Z,58.24
2022-11-27T13:35:16.797Z,58.58
2022-11-27T13:37:45.087Z,58.90
2022-11-27T13:40:20.943Z,57.43
2022-11-27T13:42:55.366Z,57.59
2022-11-27T13:45:31.035Z,57.66
2022-11-27T13:47:59.704Z,58.53
2022-11-27T13:50:31.074Z,58.36
2022-11-27T13:53:05.898Z,58.36
2022-11-27T13:55:35.585Z,58.24
2022-11-27T13:58:03.572Z,58.44
2022-11-27T14:00:40.878Z,57.94
2022-11-27T14:03:20.152Z,58.55
2022-11-27T14:05:46.564Z,58.74
2022-11-27T14:08:26.840Z,58.08
2022-11-27T14:10:58.417Z,58.04
2022-11-27T14:13:54.218Z,57.78
2022-11-27T14:16:33.094Z,58.06
2022-11-27T14:19:06.825Z,57.68
2022-11-27T14:21:38.877Z,58.38
2022-11-27T14:24:33.278Z,58.00
2022-11-27T14:26:59.727Z,58.61
2022-11-27T14:29:30.088Z,57.93
2022-11-27T14:32:01.798Z,57.97
2022-11-27T14:34:33.178Z,58.12
2022-11-27T14:37:00.651Z,58.58
2022-11-27T14:39:35.431Z,58.53
2022-11-27T14:42:07.794Z,58.59
2022-11-27T14:44:35.047Z,58.71
2022-11-27T14:47:05.359Z,59.03
2022-11-27T14:49:33.023Z,58.99
2022-11-27T14:52:06.815Z,58.92
2022-11-27T14:54:37.023Z,59.11
2022-11-27T14:57:05.052Z,59.19
2022-11-27T14:59:31.537Z,59.24
2022-11-27T15:02:18.653Z,59.36
2022-11-27T15:04:46.520Z,59.38
2022-11-27T15:07:20.571Z,59.12
2022-11-27T15:09:50.167Z,59.24
2022-11-27T15:12:21.746Z,59.26
2022-11-27T15:14:59.761Z,59.12
2022-11-27T15:17:29.897Z,59.42
2022-11-27T15:19:58.024Z,59.60
2022-11-27T15:22:24.676Z,59.69
2022-11-27T15:25:06.981Z,59.45
2022-11-27T15:27:53.586Z,59.59
2022-11-27T15:30:20.260Z,59.78
2022-11-27T15:32:51.901Z,59.35
2022-11-27T15:35:36.854Z,59.68
2022-11-27T15:38:10.602Z,59.72
2022-11-27T15:40:41.038Z,59.63
2022-11-27T15:43:13.262Z,59.72
2022-11-27T15:45:40.609Z,60.05
2022-11-27T15:48:18.936Z,59.79
2022-11-27T15:50:51.335Z,60.09
2022-11-27T15:53:18.357Z,59.94
2022-11-27T15:55:44.793Z,59.77
2022-11-27T15:58:11.246Z,59.75
2022-11-27T16:00:37.719Z,59.99
2022-11-27T16:03:04.140Z,59.83
2022-11-27T16:05:30.564Z,59.91
2022-11-27T16:07:57.583Z,59.89
2022-11-27T16:10:24.230Z,59.98
2022-11-27T16:12:54.761Z,59.88
2022-11-27T16:15:23.221Z,60.02
2022-11-27T16:17:50.550Z,60.06
2022-11-27T16:20:17.118Z,59.95
2022-11-27T16:22:43.499Z,59.81
2022-11-27T16:25:09.991Z,60.03
2022-11-27T16:27:36.400Z,59.96
2022-11-27T16:30:02.906Z,60.00
2022-11-27T16:32:29.236Z,60.00
2022-11-27T16:34:55.611Z,59.84
2022-11-27T16:37:22.200Z,59.89
2022-11-27T16:39:48.621Z,59.90
2022-11-27T16:42:15.019Z,60.04
2022-11-27T16:44:43.274Z,60.29
2022-11-27T16:47:09.954Z,60.03
2022-11-27T16:49:36.304Z,60.35
2022-11-27T16:52:03.049Z,60.22
2022-11-27T16:54:29.424Z,60.25
2022-11-27T16:56:55.864Z,60.32
2022-11-27T16:59:22.226Z,60.25
2022-11-27T17:01:48.819Z,60.20
2022-11-27T17:04:20.072Z,60.03
2022-11-27T17:06:48.586Z,59.89
2022-11-27T17:09:15.943Z,60.18
2022-11-27T17:11:44.983Z,60.11
2022-11-27T17:14:11.770Z,60.30
2022-11-27T17:16:41.326Z,60.38
2022-11-27T17:19:11.472Z,60.45
2022-11-27T17:21:38.279Z,60.63
2022-11-27T17:24:15.234Z,60.88
2022-11-27T17:26:43.678Z,60.97
2022-11-27T17:29:15.228Z,61.09
2022-11-27T17:31:42.100Z,61.06
2022-11-27T17:34:11.735Z,60.97
2022-11-27T17:36:40.713Z,61.16
2022-11-27T17:39:07.239Z,61.48
2022-11-27T17:41:34.391Z,61.25
2022-11-27T17:44:04.103Z,61.38
2022-11-27T17:46:30.787Z,61.50
2022-11-27T17:49:00.416Z,61.31
2022-11-27T17:51:29.446Z,61.36
2022-11-27T17:54:00.750Z,61.91
2022-11-27T17:56:28.232Z,61.59
2022-11-27T17:58:55.201Z,61.54
2022-11-27T18:01:25.018Z,61.62
2022-11-27T18:03:54.116Z,61.57
2022-11-27T18:06:22.744Z,61.68
2022-11-27T18:08:49.490Z,61.64
2022-11-27T18:11:18.689Z,61.71
2022-11-27T18:13:45.463Z,61.68
2022-11-27T18:16:17.112Z,61.94
2022-11-27T18:18:43.997Z,61.68
2022-11-27T18:21:18.563Z,61.90
2022-11-27T18:24:14.923Z,61.65
2022-11-27T18:27:00.573Z,61.81
2022-11-27T18:29:21.370Z,61.72
2022-11-27T18:31:48.034Z,61.84
2022-11-27T18:34:14.665Z,61.76
2022-11-27T18:36:42.194Z,62.01
2022-11-27T18:39:08.690Z,62.14
2022-11-27T18:41:35.258Z,61.94
2022-11-27T18:44:01.747Z,61.97
2022-11-27T18:46:28.518Z,62.00
2022-11-27T18:48:55.327Z,62.13
2022-11-27T18:51:23.911Z,62.10
2022-11-27T18:53:51.911Z,62.22
2022-11-27T18:56:24.307Z,62.17
2022-11-27T18:58:51.253Z,62.30
2022-11-27T19:01:23.015Z,62.23
2022-11-27T19:03:49.915Z,62.23
2022-11-27T19:06:18.151Z,62.23
2022-11-27T19:08:45.733Z,62.45
2022-11-27T19:11:15.097Z,62.15
2022-11-27T19:13:43.217Z,62.14
2022-11-27T19:16:12.904Z,62.02
2022-11-27T19:18:39.867Z,61.95
2022-11-27T19:21:10.579Z,62.20
2022-11-27T19:23:39.340Z,62.07
2022-11-27T19:26:14.471Z,62.31
2022-11-27T19:28:41.760Z,62.43
2022-11-27T19:31:10.386Z,62.58
2022-11-27T19:33:37.784Z,62.47
2022-11-27T19:36:08.680Z,62.40
2022-11-27T19:38:36.109Z,62.42
2022-11-27T19:41:04.271Z,62.49
2022-11-27T19:43:30.675Z,62.67
2022-11-27T19:45:57.232Z,62.42
2022-11-27T19:48:23.932Z,62.61
2022-11-27T19:50:51.744Z,62.46
2022-11-27T19:53:18.886Z,62.57
2022-11-27T19:55:53.054Z,62.63
2022-11-27T19:58:19.578Z,62.82
2022-11-27T20:00:46.161Z,62.79
2022-11-27T20:03:12.758Z,62.83
2022-11-27T20:05:39.220Z,62.64
2022-11-27T20:08:05.842Z,62.87
2022-11-27T20:10:32.407Z,63.06
2022-11-27T20:13:02.459Z,63.03
2022-11-27T20:15:29.645Z,63.12
2022-11-27T20:17:56.182Z,63.15
2022-11-27T20:20:22.736Z,63.21
2022-11-27T20:22:50.289Z,63.30
2022-11-27T20:25:19.891Z,62.99
2022-11-27T20:27:47.017Z,63.02
2022-11-27T20:30:13.960Z,63.30
2022-11-27T20:32:40.446Z,63.04
2022-11-27T20:35:07.259Z,63.35
2022-11-27T20:37:34.001Z,63.26
2022-11-27T20:40:00.600Z,63.63
2022-11-27T20:42:27.111Z,63.58
2022-11-27T20:44:53.757Z,63.46
2022-11-27T20:47:20.321Z,63.57
2022-11-27T20:49:46.897Z,63.49
2022-11-27T20:52:14.753Z,63.57
2022-11-27T20:54:41.356Z,63.56
2022-11-27T20:57:13.878Z,63.76
2022-11-27T20:59:41.672Z,63.75
2022-11-27T21:02:12.666Z,63.77
2022-11-27T21:04:39.280Z,63.77
2022-11-27T21:07:06.413Z,63.87
2022-11-27T21:09:33.272Z,63.73
2022-11-27T21:12:00.201Z,63.71
2022-11-27T21:14:26.849Z,63.89
2022-11-27T21:16:54.369Z,63.74
2022-11-27T21:19:24.478Z,64.10
2022-11-27T21:21:52.465Z,64.02
2022-11-27T21:24:19.745Z,63.95
2022-11-27T21:26:47.077Z,64.19
2022-11-27T21:29:14.066Z,64.03
2022-11-27T21:31:46.361Z,64.28
2022-11-27T21:34:13.334Z,64.07
2022-11-27T21:36:39.883Z,64.19
2022-11-27T21:39:09.216Z,64.03
2022-11-27T21:41:36.530Z,63.97
2022-11-27T21:44:04.070Z,64.13
2022-11-27T21:46:31.715Z,63.97
2022-11-27T21:49:00.828Z,63.95
2022-11-27T21:51:28.904Z,64.17
2022-11-27T21:53:56.488Z,64.07
2022-11-27T21:56:26.854Z,64.37
2022-11-27T21:58:53.664Z,64.12
2022-11-27T22:01:23.024Z,64.01
2022-11-27T22:03:54.255Z,64.09
2022-11-27T22:06:22.961Z,64.26
2022-11-27T22:08:50.527Z,64.28
2022-11-27T22:11:23.023Z,64.09
2022-11-27T22:13:50.048Z,64.12
2022-11-27T22:16:19.767Z,64.00
2022-11-27T22:18:47.155Z,64.15
2022-11-27T22:21:14.445Z,64.19
2022-11-27T22:23:41.736Z,64.03
2022-11-27T22:26:11.766Z,64.22
2022-11-27T22:28:38.885Z,64.18
2022-11-27T22:31:17.222Z,64.14
2022-11-27T22:33:45.227Z,64.34
2022-11-27T22:36:21.782Z,64.03
2022-11-27T22:38:50.834Z,63.69
2022-11-27T22:41:19.419Z,63.72
2022-11-27T22:43:46.301Z,63.63
2022-11-27T22:46:28.251Z,63.85
2022-11-27T22:48:58.062Z,63.97
2022-11-27T22:51:25.771Z,64.04
2022-11-27T22:53:52.394Z,63.88
2022-11-27T22:56:19.510Z,64.08
2022-11-27T22:58:46.112Z,63.98
2022-11-27T23:04:22.579Z,63.63
2022-11-27T23:06:49.072Z,63.87
2022-11-27T23:09:17.931Z,63.85
2022-11-27T23:11:46.602Z,63.93
2022-11-27T23:14:13.403Z,63.61
2022-11-27T23:16:39.915Z,63.66
2022-11-27T23:19:06.509Z,63.72
2022-11-27T23:21:37.148Z,63.87
2022-11-27T23:24:04.791Z,64.05
2022-11-27T23:26:31.803Z,63.93
2022-11-27T23:28:58.320Z,63.86
2022-11-27T23:31:30.284Z,63.71
2022-11-27T23:33:57.866Z,63.71
2022-11-27T23:36:24.632Z,63.61
2022-11-27T23:38:51.006Z,63.67
2022-11-27T23:41:21.594Z,63.88
2022-11-27T23:43:48.621Z,63.62
2022-11-27T23:46:17.407Z,63.60
2022-11-27T23:48:44.603Z,63.97
2022-11-27T23:51:20.340Z,63.72
2022-11-27T23:53:47.516Z,63.56
2022-11-27T23:56:17.220Z,63.83
2022-11-27T23:58:46.938Z,63.77
